Current Weather

Tweed/New Haven

New Haven, Connecticut (KHVN)

Report from: Wednesday, May 29, 2024 7:53 PM EDT
Current time: Wednesday, May 29, 2024 8:51 PM EDT

Nearby weather – Weather history – Daily summaries
Weather forecast

Temperature20.0°C (68.0°F)
Dew point13.9°C (57.0°F)
Winds 3 kts (1.5 m/s, 3.5 mph) South (170°)
Visibility10 mi. (16.1 km)
Clouds Sky clear
Altimeter29.88 in.Hg (1012 mB)
Relative humidity68 %
Density altitude858 ft. (262 m)
Sea-level pressure101.2 kPa (1012 mB, 29.88 in.Hg)
Flight conditions Visual Meteorological Conditions
Raw dataKHVN 292353Z 17003KT 10SM CLR 20/14 A2988 RMK A02 SLP117 T02000139
An error has occurred. This application may no longer respond until reloaded. Reload 🗙